createdAt,value
2023-07-24T00:00:01.687Z,19.68
2023-07-24T00:01:01.739Z,19.60
2023-07-24T00:02:01.680Z,19.65
2023-07-24T00:03:01.737Z,19.57
2023-07-24T00:04:01.649Z,19.55
2023-07-24T00:05:01.677Z,19.53
2023-07-24T00:06:01.649Z,19.46
2023-07-24T00:07:01.658Z,19.52
2023-07-24T00:08:01.681Z,19.55
2023-07-24T00:09:01.604Z,19.43
2023-07-24T00:10:01.621Z,19.40
2023-07-24T00:11:01.627Z,19.38
2023-07-24T00:12:01.601Z,19.35
2023-07-24T00:13:01.624Z,19.27
2023-07-24T00:14:01.612Z,19.32
2023-07-24T00:15:01.570Z,19.28
2023-07-24T00:16:01.637Z,19.34
2023-07-24T00:17:01.627Z,19.27
2023-07-24T00:18:01.618Z,19.07
2023-07-24T00:19:01.548Z,19.01
2023-07-24T00:20:01.590Z,19.09
2023-07-24T00:21:01.561Z,19.13
2023-07-24T00:22:01.577Z,19.13
2023-07-24T00:23:01.546Z,19.05
2023-07-24T00:24:01.534Z,19.07
2023-07-24T00:25:01.516Z,19.02
2023-07-24T00:26:01.515Z,19.07
2023-07-24T00:27:01.537Z,19.01
2023-07-24T00:28:01.532Z,19.10
2023-07-24T00:29:01.508Z,19.09
2023-07-24T00:30:01.543Z,18.99
2023-07-24T00:31:01.551Z,19.01
2023-07-24T00:32:01.484Z,18.99
2023-07-24T00:33:01.561Z,19.06
2023-07-24T00:34:01.517Z,18.96
2023-07-24T00:35:01.489Z,18.89
2023-07-24T00:36:01.470Z,19.09
2023-07-24T00:37:01.481Z,18.97
2023-07-24T00:38:01.497Z,19.16
2023-07-24T00:39:01.442Z,18.96
2023-07-24T00:40:01.442Z,18.97
2023-07-24T00:41:01.428Z,18.75
2023-07-24T00:42:01.402Z,18.60
2023-07-24T00:43:01.442Z,18.32
2023-07-24T00:44:01.418Z,18.19
2023-07-24T00:45:03.368Z,18.19
2023-07-24T00:46:01.412Z,18.26
2023-07-24T00:47:01.442Z,18.29
2023-07-24T00:48:01.498Z,18.09
2023-07-24T00:49:01.402Z,17.95
2023-07-24T00:50:01.443Z,17.99
2023-07-24T00:51:01.387Z,18.04
2023-07-24T00:52:01.362Z,18.01
2023-07-24T00:53:02.394Z,18.04
2023-07-24T00:54:01.331Z,18.09
2023-07-24T00:55:01.355Z,18.13
2023-07-24T00:56:01.334Z,18.32
2023-07-24T00:57:01.317Z,18.25
2023-07-24T00:58:01.326Z,18.36
2023-07-24T00:59:01.333Z,18.31
2023-07-24T01:00:02.336Z,18.32
2023-07-24T01:01:01.382Z,18.23
2023-07-24T01:02:01.279Z,18.14
2023-07-24T01:03:01.347Z,17.77
2023-07-24T01:04:01.281Z,17.68
2023-07-24T01:05:01.314Z,17.62
2023-07-24T01:06:01.274Z,17.55
2023-07-24T01:07:01.294Z,17.62
2023-07-24T01:08:01.266Z,17.86
2023-07-24T01:09:01.255Z,17.80
2023-07-24T01:10:01.273Z,17.89
2023-07-24T01:11:01.238Z,17.92
2023-07-24T01:12:01.247Z,17.94
2023-07-24T01:13:01.229Z,18.01
2023-07-24T01:14:01.247Z,18.11
2023-07-24T01:15:01.186Z,18.13
2023-07-24T01:16:01.210Z,18.09
2023-07-24T01:17:01.307Z,18.07
2023-07-24T01:18:01.230Z,18.16
2023-07-24T01:19:01.174Z,18.17
2023-07-24T01:20:01.220Z,18.25
2023-07-24T01:21:01.158Z,18.23
2023-07-24T01:22:01.173Z,17.94
2023-07-24T01:23:01.264Z,17.73
2023-07-24T01:24:01.140Z,17.58
2023-07-24T01:25:01.157Z,17.45
2023-07-24T01:26:01.120Z,17.47
2023-07-24T01:27:01.135Z,17.60
2023-07-24T01:28:01.147Z,17.63
2023-07-24T01:29:01.106Z,17.51
2023-07-24T01:30:01.113Z,17.28
2023-07-24T01:31:01.156Z,17.21
2023-07-24T01:32:01.123Z,17.03
2023-07-24T01:33:01.177Z,17.03
2023-07-24T01:34:01.087Z,17.07
2023-07-24T01:35:01.058Z,17.05
2023-07-24T01:36:01.062Z,17.18
2023-07-24T01:37:01.060Z,17.14
2023-07-24T01:38:01.096Z,17.32
2023-07-24T01:39:01.020Z,17.36
2023-07-24T01:40:01.040Z,17.40
2023-07-24T01:41:01.027Z,17.46
2023-07-24T01:42:01.044Z,17.55
2023-07-24T01:43:01.044Z,17.57
2023-07-24T01:44:01.008Z,17.79
2023-07-24T01:45:01.006Z,17.83
2023-07-24T01:46:01.063Z,17.80
2023-07-24T01:47:01.009Z,17.77
2023-07-24T01:48:01.096Z,17.91
2023-07-24T01:49:01.032Z,17.91
2023-07-24T01:50:00.985Z,17.92
2023-07-24T01:51:01.997Z,17.84
2023-07-24T01:52:00.981Z,17.98
2023-07-24T01:53:00.969Z,18.01
2023-07-24T01:54:00.981Z,17.91
2023-07-24T01:55:00.941Z,18.05
2023-07-24T01:56:00.941Z,17.96
2023-07-24T01:57:00.944Z,18.01
2023-07-24T01:58:00.913Z,18.14
2023-07-24T01:59:00.919Z,17.98
2023-07-24T02:00:00.910Z,17.96
2023-07-24T02:01:00.904Z,18.01
2023-07-24T02:02:00.912Z,17.95
2023-07-24T02:03:00.926Z,17.92
2023-07-24T02:04:00.911Z,17.89
2023-07-24T02:05:00.912Z,17.98
2023-07-24T02:06:00.909Z,17.92
2023-07-24T02:07:00.857Z,18.01
2023-07-24T02:08:00.872Z,18.02
2023-07-24T02:09:00.854Z,18.04
2023-07-24T02:10:00.874Z,18.04
2023-07-24T02:11:00.832Z,18.05
2023-07-24T02:12:00.823Z,18.02
2023-07-24T02:13:00.822Z,18.10
2023-07-24T02:14:00.803Z,18.05
2023-07-24T02:15:00.858Z,17.96
2023-07-24T02:16:00.813Z,18.17
2023-07-24T02:17:00.793Z,18.13
2023-07-24T02:18:00.834Z,18.11
2023-07-24T02:19:00.792Z,18.14
2023-07-24T02:20:00.810Z,18.07
2023-07-24T02:21:00.812Z,17.92
2023-07-24T02:22:00.788Z,17.74
2023-07-24T02:23:00.743Z,17.46
2023-07-24T02:24:00.764Z,17.30
2023-07-24T02:25:00.754Z,17.20
2023-07-24T02:26:00.749Z,17.10
2023-07-24T02:27:00.760Z,16.91
2023-07-24T02:28:00.763Z,16.81
2023-07-24T02:29:00.738Z,16.78
2023-07-24T02:30:00.765Z,16.69
2023-07-24T02:31:00.764Z,16.80
2023-07-24T02:32:00.746Z,16.84
2023-07-24T02:33:00.715Z,16.87
2023-07-24T02:34:00.695Z,16.91
2023-07-24T02:35:00.675Z,16.88
2023-07-24T02:36:00.669Z,16.96
2023-07-24T02:37:00.724Z,17.00
2023-07-24T02:38:00.747Z,17.07
2023-07-24T02:39:00.637Z,17.12
2023-07-24T02:40:00.696Z,17.18
2023-07-24T02:41:00.651Z,17.39
2023-07-24T02:42:00.658Z,17.36
2023-07-24T02:43:00.633Z,17.46
2023-07-24T02:44:00.606Z,17.45
2023-07-24T02:45:00.616Z,17.46
2023-07-24T02:46:00.634Z,17.43
2023-07-24T02:47:00.589Z,17.49
2023-07-24T02:48:00.656Z,17.53
2023-07-24T02:49:00.631Z,17.66
2023-07-24T02:50:00.624Z,17.70
2023-07-24T02:51:00.622Z,17.65
2023-07-24T02:52:00.571Z,17.38
2023-07-24T02:53:00.583Z,17.10
2023-07-24T02:54:00.580Z,17.03
2023-07-24T02:55:00.524Z,17.10
2023-07-24T02:56:00.543Z,17.33
2023-07-24T02:57:00.560Z,17.24
2023-07-24T02:58:00.519Z,17.33
2023-07-24T02:59:00.549Z,17.40
2023-07-24T03:00:00.512Z,17.53
2023-07-24T03:01:00.582Z,17.54
2023-07-24T03:02:00.514Z,17.70
2023-07-24T03:03:00.552Z,17.70
2023-07-24T03:04:00.516Z,17.77
2023-07-24T03:05:00.474Z,17.77
2023-07-24T03:06:00.507Z,17.81
2023-07-24T03:07:00.484Z,17.86
2023-07-24T03:08:00.503Z,17.80
2023-07-24T03:09:00.473Z,17.65
2023-07-24T03:10:00.442Z,17.28
2023-07-24T03:11:00.427Z,17.36
2023-07-24T03:12:00.468Z,17.35
2023-07-24T03:13:00.432Z,17.33
2023-07-24T03:14:00.490Z,17.43
2023-07-24T03:15:00.433Z,17.43
2023-07-24T03:16:00.477Z,17.47
2023-07-24T03:17:03.135Z,17.53
2023-07-24T03:18:00.433Z,17.62
2023-07-24T03:19:00.396Z,17.62
2023-07-24T03:20:00.391Z,17.63
2023-07-24T03:21:00.380Z,17.68
2023-07-24T03:22:00.400Z,17.70
2023-07-24T03:23:00.358Z,17.66
2023-07-24T03:24:00.365Z,17.49
2023-07-24T03:25:00.344Z,17.36
2023-07-24T03:26:00.333Z,17.35
2023-07-24T03:27:00.324Z,17.33
2023-07-24T03:28:00.314Z,17.39
2023-07-24T03:29:00.356Z,17.43
2023-07-24T03:30:00.343Z,17.49
2023-07-24T03:31:00.441Z,17.53
2023-07-24T03:32:00.293Z,17.54
2023-07-24T03:33:00.316Z,17.53
2023-07-24T03:34:00.267Z,17.62
2023-07-24T03:35:00.320Z,17.53
2023-07-24T03:36:00.353Z,17.62
2023-07-24T03:37:00.259Z,17.60
2023-07-24T03:38:00.277Z,17.60
2023-07-24T03:39:00.239Z,17.62
2023-07-24T03:40:00.268Z,17.65
2023-07-24T03:41:00.234Z,17.65
2023-07-24T03:42:00.249Z,17.02
2023-07-24T03:43:00.241Z,16.84
2023-07-24T03:44:00.209Z,16.90
2023-07-24T03:45:00.224Z,16.82
2023-07-24T03:46:00.240Z,16.92
2023-07-24T03:47:00.398Z,16.98
2023-07-24T03:48:00.211Z,16.92
2023-07-24T03:49:00.214Z,16.98
2023-07-24T03:50:00.207Z,16.80
2023-07-24T03:51:00.168Z,16.77
2023-07-24T03:52:00.168Z,16.62
2023-07-24T03:53:00.200Z,16.65
2023-07-24T03:54:00.142Z,16.62
2023-07-24T03:55:00.131Z,16.65
2023-07-24T03:56:00.129Z,16.55
2023-07-24T03:57:00.109Z,16.37
2023-07-24T03:58:00.135Z,16.44
2023-07-24T03:59:00.111Z,16.33
2023-07-24T04:00:00.141Z,16.27
2023-07-24T04:01:00.136Z,16.34
2023-07-24T04:02:00.130Z,16.40
2023-07-24T04:03:00.156Z,16.42
2023-07-24T04:04:00.091Z,16.36
2023-07-24T04:05:00.085Z,16.27
2023-07-24T04:06:00.077Z,16.36
2023-07-24T04:07:00.104Z,16.30
2023-07-24T04:08:00.156Z,16.36
2023-07-24T04:09:00.017Z,16.37
2023-07-24T04:10:00.024Z,16.18
2023-07-24T04:11:00.049Z,16.30
2023-07-24T04:12:00.027Z,16.37
2023-07-24T04:13:00.032Z,16.45
2023-07-24T04:13:59.982Z,16.65
2023-07-24T04:14:59.972Z,16.73
2023-07-24T04:16:00.003Z,16.73
2023-07-24T04:17:00.042Z,16.87
2023-07-24T04:18:00.004Z,17.02
2023-07-24T04:19:00.004Z,17.00
2023-07-24T04:19:59.939Z,17.06
2023-07-24T04:20:59.976Z,17.07
2023-07-24T04:21:59.979Z,17.06
2023-07-24T04:22:59.973Z,17.15
2023-07-24T04:23:59.924Z,17.09
2023-07-24T04:24:59.908Z,16.90
2023-07-24T04:25:59.921Z,17.03
2023-07-24T04:26:59.942Z,17.07
2023-07-24T04:27:59.908Z,17.06
2023-07-24T04:28:59.869Z,17.18
2023-07-24T04:29:59.888Z,17.15
2023-07-24T04:30:59.914Z,17.28
2023-07-24T04:31:59.902Z,17.24
2023-07-24T04:32:59.915Z,17.20
2023-07-24T04:33:59.847Z,17.20
2023-07-24T04:34:59.856Z,17.25
2023-07-24T04:35:59.838Z,17.25
2023-07-24T04:36:59.954Z,17.12
2023-07-24T04:37:59.872Z,17.17
2023-07-24T04:38:59.855Z,17.09
2023-07-24T04:39:59.795Z,17.15
2023-07-24T04:40:59.823Z,17.15
2023-07-24T04:41:59.829Z,16.99
2023-07-24T04:42:59.819Z,16.90
2023-07-24T04:43:59.793Z,16.78
2023-07-24T04:44:59.791Z,16.78
2023-07-24T04:45:59.811Z,17.10
2023-07-24T04:46:59.863Z,17.76
2023-07-24T04:47:59.789Z,18.13
2023-07-24T04:48:59.739Z,18.46
2023-07-24T04:49:59.756Z,18.59
2023-07-24T04:50:59.832Z,18.72
2023-07-24T04:51:59.765Z,18.60
2023-07-24T04:52:59.719Z,18.56
2023-07-24T04:53:59.734Z,18.65
2023-07-24T04:54:59.842Z,18.57
2023-07-24T04:55:59.714Z,18.66
2023-07-24T04:56:59.746Z,18.71
2023-07-24T04:57:59.683Z,18.66
2023-07-24T04:58:59.712Z,18.44
2023-07-24T04:59:59.684Z,18.36
2023-07-24T05:00:59.687Z,18.31
2023-07-24T05:01:59.733Z,18.47
2023-07-24T05:02:59.688Z,18.41
2023-07-24T05:03:59.677Z,18.35
2023-07-24T05:04:59.679Z,18.01
2023-07-24T05:05:59.670Z,18.02
2023-07-24T05:06:59.660Z,17.91
2023-07-24T05:07:59.606Z,17.81
2023-07-24T05:08:59.639Z,17.68
2023-07-24T05:09:59.648Z,17.76
2023-07-24T05:10:59.651Z,17.79
2023-07-24T05:11:59.613Z,17.70
2023-07-24T05:12:59.600Z,17.81
2023-07-24T05:13:59.603Z,17.80
2023-07-24T05:14:59.573Z,17.86
2023-07-24T05:15:59.583Z,18.10
2023-07-24T05:16:59.561Z,18.25
2023-07-24T05:17:59.613Z,18.38
2023-07-24T05:18:59.591Z,18.46
2023-07-24T05:19:59.536Z,18.64
2023-07-24T05:20:59.567Z,18.74
2023-07-24T05:21:59.542Z,18.76
2023-07-24T05:22:59.563Z,18.84
2023-07-24T05:23:59.518Z,18.96
2023-07-24T05:24:59.507Z,19.01
2023-07-24T05:25:59.519Z,19.06
2023-07-24T05:26:59.528Z,19.17
2023-07-24T05:27:59.511Z,19.10
2023-07-24T05:28:59.510Z,19.21
2023-07-24T05:29:59.491Z,19.24
2023-07-24T05:30:59.475Z,19.25
2023-07-24T05:31:59.557Z,19.27
2023-07-24T05:32:59.585Z,19.30
2023-07-24T05:33:59.467Z,19.34
2023-07-24T05:34:59.438Z,19.39
2023-07-24T05:35:59.460Z,19.42
2023-07-24T05:36:59.438Z,19.31
2023-07-24T05:37:59.525Z,19.30
2023-07-24T05:38:59.425Z,19.15
2023-07-24T05:39:59.415Z,18.91
2023-07-24T05:40:59.410Z,18.75
2023-07-24T05:41:59.507Z,18.34
2023-07-24T05:42:59.414Z,17.95
2023-07-24T05:43:59.397Z,17.94
2023-07-24T05:45:00.384Z,17.79
2023-07-24T05:45:59.447Z,17.87
2023-07-24T05:46:59.460Z,18.01
2023-07-24T05:47:59.493Z,18.02
2023-07-24T05:48:59.476Z,18.04
2023-07-24T05:49:59.365Z,18.10
2023-07-24T05:50:59.372Z,18.19
2023-07-24T05:51:59.324Z,18.36
2023-07-24T05:53:01.420Z,18.59
2023-07-24T05:53:59.342Z,18.82
2023-07-24T05:54:59.359Z,19.09
2023-07-24T05:55:59.318Z,19.35
2023-07-24T05:56:59.327Z,19.40
2023-07-24T05:57:59.282Z,19.47
2023-07-24T05:58:59.322Z,19.52
2023-07-24T05:59:59.311Z,19.70
2023-07-24T06:00:59.282Z,19.80
2023-07-24T06:01:59.344Z,19.94
2023-07-24T06:02:59.268Z,20.08
2023-07-24T06:03:59.376Z,20.23
2023-07-24T06:04:59.311Z,20.46
2023-07-24T06:05:59.240Z,20.58
2023-07-24T06:06:59.314Z,20.63
2023-07-24T06:07:59.230Z,20.69
2023-07-24T06:08:59.218Z,20.88
2023-07-24T06:09:59.257Z,21.00
2023-07-24T06:10:59.230Z,21.09
2023-07-24T06:11:59.223Z,21.21
2023-07-24T06:12:59.207Z,21.26
2023-07-24T06:14:00.190Z,21.33
2023-07-24T06:14:59.179Z,21.38
2023-07-24T06:15:59.247Z,21.49
2023-07-24T06:16:59.266Z,21.56
2023-07-24T06:17:59.218Z,21.49
2023-07-24T06:18:59.180Z,21.34
2023-07-24T06:19:59.238Z,21.16
2023-07-24T06:20:59.151Z,21.16
2023-07-24T06:21:59.180Z,21.01
2023-07-24T06:22:59.147Z,20.94
2023-07-24T06:23:59.135Z,20.81
2023-07-24T06:24:59.121Z,20.69
2023-07-24T06:25:59.137Z,20.46
2023-07-24T06:26:59.127Z,20.31
2023-07-24T06:27:59.096Z,20.12
2023-07-24T06:28:59.097Z,20.12
2023-07-24T06:31:00.108Z,20.35
2023-07-24T06:31:59.119Z,20.64
2023-07-24T06:32:59.138Z,20.87
2023-07-24T06:33:59.060Z,21.09
2023-07-24T06:34:59.051Z,21.26
2023-07-24T06:35:59.175Z,21.31
2023-07-24T06:37:09.114Z,21.38
2023-07-24T06:38:01.063Z,21.61
2023-07-24T06:38:59.072Z,21.68
2023-07-24T06:39:59.030Z,21.85
2023-07-24T06:40:59.031Z,21.85
2023-07-24T06:41:59.044Z,21.90
2023-07-24T06:42:59.050Z,22.02
2023-07-24T06:43:59.021Z,22.06
2023-07-24T06:44:59.023Z,22.12
2023-07-24T06:45:59.047Z,22.17
2023-07-24T06:46:59.022Z,22.12
2023-07-24T06:47:59.026Z,22.08
2023-07-24T06:48:58.967Z,22.04
2023-07-24T06:49:59.016Z,21.98
2023-07-24T06:50:59.043Z,21.79
2023-07-24T06:51:58.973Z,21.79
2023-07-24T06:52:58.933Z,21.59
2023-07-24T06:53:58.924Z,21.53
2023-07-24T06:54:58.966Z,21.42
2023-07-24T06:55:58.976Z,21.48
2023-07-24T06:56:58.942Z,21.42
2023-07-24T06:57:58.930Z,21.38
2023-07-24T06:58:58.907Z,21.42
2023-07-24T06:59:58.883Z,21.68
2023-07-24T07:00:58.931Z,21.83
2023-07-24T07:01:58.905Z,22.14
2023-07-24T07:02:58.935Z,22.31
2023-07-24T07:03:58.963Z,22.49
2023-07-24T07:04:58.878Z,22.57
2023-07-24T07:05:58.878Z,22.69
2023-07-24T07:06:58.874Z,22.75
2023-07-24T07:07:58.853Z,22.82
2023-07-24T07:08:58.856Z,22.60
2023-07-24T07:09:58.854Z,22.66
2023-07-24T07:10:58.869Z,22.78
2023-07-24T07:11:58.816Z,22.63
2023-07-24T07:12:58.809Z,22.67
2023-07-24T07:13:58.895Z,22.63
2023-07-24T07:14:58.822Z,22.45
2023-07-24T07:15:58.846Z,22.44
2023-07-24T07:16:58.834Z,22.41
2023-07-24T07:17:58.819Z,22.36
2023-07-24T07:18:58.835Z,22.42
2023-07-24T07:19:58.823Z,22.59
2023-07-24T07:20:58.777Z,22.75
2023-07-24T07:21:58.785Z,22.75
2023-07-24T07:22:58.788Z,22.89
2023-07-24T07:23:58.758Z,22.96
2023-07-24T07:24:58.785Z,23.07
2023-07-24T07:25:58.738Z,23.07
2023-07-24T07:26:58.755Z,23.07
2023-07-24T07:27:58.722Z,23.11
2023-07-24T07:28:58.730Z,23.00
2023-07-24T07:29:58.713Z,22.99
2023-07-24T07:30:58.789Z,23.06
2023-07-24T07:31:58.752Z,23.01
2023-07-24T07:32:58.734Z,22.86
2023-07-24T07:33:58.736Z,22.91
2023-07-24T07:34:58.663Z,22.85
2023-07-24T07:35:59.863Z,22.76
2023-07-24T07:36:59.683Z,23.00
2023-07-24T07:37:58.643Z,22.99
2023-07-24T07:38:58.676Z,23.00
2023-07-24T07:39:58.649Z,23.04
2023-07-24T07:40:58.650Z,23.16
2023-07-24T07:42:12.195Z,23.39
2023-07-24T07:43:00.631Z,23.64
2023-07-24T07:43:58.773Z,23.81
2023-07-24T07:44:58.622Z,23.94
2023-07-24T07:45:58.593Z,24.16
2023-07-24T07:46:58.693Z,24.34
2023-07-24T07:47:58.637Z,24.67
2023-07-24T07:48:58.664Z,24.79
2023-07-24T07:49:58.612Z,24.89
2023-07-24T07:50:58.607Z,24.94
2023-07-24T07:51:58.560Z,24.87
2023-07-24T07:52:58.603Z,24.84
2023-07-24T07:53:58.570Z,24.80
2023-07-24T07:55:00.366Z,24.75
2023-07-24T07:55:58.597Z,24.82
2023-07-24T07:56:58.585Z,24.80
2023-07-24T07:57:58.506Z,24.86
2023-07-24T07:58:58.518Z,24.87
2023-07-24T07:59:58.565Z,24.86
2023-07-24T08:00:58.526Z,24.94
2023-07-24T08:01:58.516Z,25.07
2023-07-24T08:02:58.636Z,25.09
2023-07-24T08:03:58.567Z,24.99
2023-07-24T08:05:01.816Z,24.97
2023-07-24T08:05:59.490Z,24.97
2023-07-24T08:06:58.439Z,25.04
2023-07-24T08:07:58.456Z,25.07
2023-07-24T08:08:58.438Z,24.90
2023-07-24T08:09:58.440Z,24.64
2023-07-24T08:10:58.440Z,24.61
2023-07-24T08:11:58.408Z,24.92
2023-07-24T08:12:58.503Z,24.92
2023-07-24T08:13:58.427Z,24.94
2023-07-24T08:14:58.448Z,24.99
2023-07-24T08:15:58.414Z,25.01
2023-07-24T08:16:58.493Z,25.14
2023-07-24T08:17:58.393Z,25.11
2023-07-24T08:18:58.691Z,24.89
2023-07-24T08:19:59.903Z,24.93
2023-07-24T08:20:58.425Z,24.83
2023-07-24T08:21:58.350Z,24.67
2023-07-24T08:22:58.353Z,24.75
2023-07-24T08:23:58.377Z,24.61
2023-07-24T08:24:58.438Z,24.51
2023-07-24T08:25:58.368Z,24.55
2023-07-24T08:26:58.305Z,24.49
2023-07-24T08:28:05.356Z,24.51
2023-07-24T08:29:00.312Z,24.51
2023-07-24T08:29:58.295Z,24.51
2023-07-24T08:30:58.343Z,24.59
2023-07-24T08:31:58.411Z,24.61
2023-07-24T08:32:58.390Z,24.67
2023-07-24T08:33:58.354Z,24.67
2023-07-24T08:34:58.285Z,24.66
2023-07-24T08:35:58.234Z,24.63
2023-07-24T08:36:58.260Z,24.59
2023-07-24T08:37:58.232Z,24.70
2023-07-24T08:38:58.294Z,24.63
2023-07-24T08:39:58.201Z,24.75
2023-07-24T08:40:58.220Z,24.87
2023-07-24T08:41:58.218Z,24.86
2023-07-24T08:42:58.340Z,24.94
2023-07-24T08:43:58.288Z,24.93
2023-07-24T08:44:58.224Z,24.82
2023-07-24T08:45:58.267Z,24.83
2023-07-24T08:46:58.182Z,24.79
2023-07-24T08:47:58.281Z,24.70
2023-07-24T08:48:58.256Z,24.74
2023-07-24T08:49:58.219Z,24.83
2023-07-24T08:50:58.203Z,24.98
2023-07-24T08:52:00.527Z,24.98
2023-07-24T08:52:58.234Z,24.98
2023-07-24T08:53:58.233Z,25.11
2023-07-24T08:55:00.677Z,25.09
2023-07-24T08:55:58.121Z,25.14
2023-07-24T08:56:58.134Z,25.22
2023-07-24T08:57:59.984Z,25.14
2023-07-24T08:58:58.097Z,25.19
2023-07-24T08:59:58.126Z,25.27
2023-07-24T09:00:58.138Z,25.17
2023-07-24T09:01:58.051Z,25.12
2023-07-24T09:02:58.100Z,25.14
2023-07-24T09:03:58.091Z,25.19
2023-07-24T09:04:58.063Z,25.36
2023-07-24T09:05:58.095Z,25.45
2023-07-24T09:06:58.061Z,25.38
2023-07-24T09:07:58.024Z,25.34
2023-07-24T09:08:58.030Z,25.36
2023-07-24T09:09:58.032Z,25.48
2023-07-24T09:10:58.056Z,25.48
2023-07-24T09:11:58.030Z,25.69
2023-07-24T09:12:57.986Z,25.64
2023-07-24T09:13:59.768Z,25.66
2023-07-24T09:14:57.966Z,25.54
2023-07-24T09:15:58.037Z,25.44
2023-07-24T09:16:58.024Z,25.56
2023-07-24T09:17:58.070Z,25.66
2023-07-24T09:19:10.464Z,25.51
2023-07-24T09:19:59.986Z,25.42
2023-07-24T09:20:57.965Z,25.34
2023-07-24T09:21:57.961Z,25.24
2023-07-24T09:23:14.167Z,25.19
2023-07-24T09:23:59.950Z,25.23
2023-07-24T09:24:57.933Z,25.27
2023-07-24T09:25:57.894Z,25.39
2023-07-24T09:26:59.220Z,25.36
2023-07-24T09:27:58.893Z,25.41
2023-07-24T09:28:57.893Z,25.54
2023-07-24T09:29:57.867Z,25.36
2023-07-24T09:30:57.942Z,25.31
2023-07-24T09:31:57.943Z,25.11
2023-07-24T09:32:57.890Z,25.01
2023-07-24T09:33:57.882Z,24.99
2023-07-24T09:34:57.971Z,25.04
2023-07-24T09:35:57.850Z,25.17
2023-07-24T09:36:58.040Z,25.34
2023-07-24T09:37:57.850Z,25.46
2023-07-24T09:38:57.815Z,25.67
2023-07-24T09:40:00.055Z,25.89
2023-07-24T09:40:57.847Z,25.85
2023-07-24T09:41:57.848Z,25.85
2023-07-24T09:43:25.206Z,25.86
2023-07-24T09:43:59.809Z,25.93
2023-07-24T09:45:04.550Z,25.81
2023-07-24T09:45:58.228Z,25.90
2023-07-24T09:48:02.639Z,25.81
2023-07-24T09:49:58.764Z,25.60
2023-07-24T09:50:57.743Z,25.38
2023-07-24T09:51:57.828Z,25.14
2023-07-24T09:52:57.730Z,25.11
2023-07-24T09:53:57.759Z,25.01
2023-07-24T09:54:57.724Z,24.92
2023-07-24T09:55:57.732Z,24.93
2023-07-24T09:57:06.918Z,25.02
2023-07-24T09:57:59.800Z,25.29
2023-07-24T09:58:57.710Z,25.45
2023-07-24T09:59:57.761Z,25.71
2023-07-24T10:00:57.758Z,25.76
2023-07-24T10:01:57.715Z,25.74
2023-07-24T10:02:57.688Z,25.81
2023-07-24T10:03:57.640Z,25.81
2023-07-24T10:04:57.771Z,26.11
2023-07-24T10:05:57.650Z,26.23
2023-07-24T10:06:57.687Z,26.38
2023-07-24T10:07:57.641Z,26.41
2023-07-24T10:08:57.624Z,26.31
2023-07-24T10:09:57.650Z,26.13
2023-07-24T10:10:57.635Z,25.85
2023-07-24T10:11:57.843Z,25.81
2023-07-24T10:12:57.604Z,26.00
2023-07-24T10:13:57.598Z,26.20
2023-07-24T10:14:58.610Z,26.20
2023-07-24T10:15:57.623Z,26.44
2023-07-24T10:16:58.582Z,26.59
2023-07-24T10:17:57.611Z,26.60
2023-07-24T10:18:57.575Z,26.56
2023-07-24T10:19:57.582Z,26.68
2023-07-24T10:20:57.583Z,26.41
2023-07-24T10:21:57.540Z,26.24
2023-07-24T10:22:57.554Z,26.28
2023-07-24T10:23:57.559Z,26.38
2023-07-24T10:24:57.582Z,26.35
2023-07-24T10:25:57.524Z,26.23
2023-07-24T10:26:57.517Z,26.08
2023-07-24T10:27:57.504Z,26.13
2023-07-24T10:28:57.499Z,26.00
2023-07-24T10:29:57.504Z,25.82
2023-07-24T10:30:58.592Z,25.81
2023-07-24T10:31:57.684Z,25.69
2023-07-24T10:32:57.613Z,25.51
2023-07-24T10:33:57.520Z,25.49
2023-07-24T10:34:57.469Z,25.38
2023-07-24T10:35:57.482Z,25.29
2023-07-24T10:36:57.486Z,25.45
2023-07-24T10:37:57.450Z,25.51
2023-07-24T10:38:57.440Z,25.54
2023-07-24T10:39:57.512Z,25.76
2023-07-24T10:40:57.428Z,25.81
2023-07-24T10:41:57.502Z,26.03
2023-07-24T10:42:57.437Z,26.06
2023-07-24T10:43:57.478Z,26.34
2023-07-24T10:44:57.411Z,26.71
2023-07-24T10:45:57.475Z,26.66
2023-07-24T10:46:57.499Z,26.47
2023-07-24T10:47:57.464Z,26.47
2023-07-24T10:48:57.396Z,26.65
2023-07-24T10:49:57.366Z,26.86
2023-07-24T10:50:57.367Z,26.97
2023-07-24T10:51:57.385Z,27.08
2023-07-24T10:52:57.355Z,27.24
2023-07-24T10:53:57.391Z,27.38
2023-07-24T10:54:57.380Z,27.45
2023-07-24T10:55:57.331Z,27.63
2023-07-24T10:56:57.338Z,27.81
2023-07-24T10:57:57.426Z,27.81
2023-07-24T10:58:57.307Z,27.86
2023-07-24T10:59:57.413Z,27.83
2023-07-24T11:00:57.429Z,27.58
2023-07-24T11:01:57.315Z,27.45
2023-07-24T11:02:57.382Z,27.18
2023-07-24T11:03:57.298Z,26.97
2023-07-24T11:04:57.323Z,26.78
2023-07-24T11:05:57.275Z,26.53
2023-07-24T11:06:57.272Z,26.27
2023-07-24T11:07:57.278Z,26.08
2023-07-24T11:08:57.272Z,25.96
2023-07-24T11:09:57.253Z,25.97
2023-07-24T11:10:57.262Z,25.97
2023-07-24T11:11:57.264Z,26.01
2023-07-24T11:12:57.242Z,26.19
2023-07-24T11:13:57.299Z,26.46
2023-07-24T11:14:57.241Z,26.51
2023-07-24T11:15:57.312Z,26.69
2023-07-24T11:16:57.225Z,26.88
2023-07-24T11:17:57.261Z,26.98
2023-07-24T11:18:57.250Z,27.01
2023-07-24T11:19:57.185Z,27.06
2023-07-24T11:20:57.206Z,27.08
2023-07-24T11:21:57.190Z,26.96
2023-07-24T11:22:57.214Z,26.87
2023-07-24T11:23:57.204Z,26.84
2023-07-24T11:24:57.192Z,26.88
2023-07-24T11:25:57.141Z,26.87
2023-07-24T11:26:57.151Z,26.84
2023-07-24T11:27:57.136Z,26.81
2023-07-24T11:28:57.144Z,26.91
2023-07-24T11:29:57.153Z,26.91
2023-07-24T11:30:57.118Z,26.90
2023-07-24T11:31:57.127Z,26.98
2023-07-24T11:32:57.123Z,27.16
2023-07-24T11:33:57.104Z,27.27
2023-07-24T11:34:58.118Z,27.46
2023-07-24T11:35:57.119Z,27.65
2023-07-24T11:36:57.142Z,27.52
2023-07-24T11:37:57.455Z,27.46
2023-07-24T11:38:57.061Z,27.42
2023-07-24T11:39:57.059Z,27.31
2023-07-24T11:40:57.261Z,27.24
2023-07-24T11:41:57.051Z,27.20
2023-07-24T11:42:57.074Z,27.21
2023-07-24T11:43:57.113Z,27.46
2023-07-24T11:44:57.059Z,27.40
2023-07-24T11:45:57.056Z,27.45
2023-07-24T11:46:59.028Z,27.30
2023-07-24T11:47:58.059Z,27.16
2023-07-24T11:48:57.201Z,27.20
2023-07-24T11:49:57.025Z,27.21
2023-07-24T11:50:56.998Z,27.08
2023-07-24T11:51:57.020Z,26.96
2023-07-24T11:52:56.992Z,26.91
2023-07-24T11:53:57.095Z,26.90
2023-07-24T11:54:56.967Z,26.86
2023-07-24T11:55:57.009Z,26.76
2023-07-24T11:56:56.971Z,26.59
2023-07-24T11:57:56.942Z,26.41
2023-07-24T11:58:56.955Z,26.38
2023-07-24T11:59:56.935Z,26.23
2023-07-24T12:00:56.933Z,26.21
2023-07-24T12:01:56.930Z,26.17
2023-07-24T12:02:57.009Z,26.29
2023-07-24T12:03:57.014Z,26.42
2023-07-24T12:04:56.911Z,26.57
2023-07-24T12:05:56.933Z,26.69
2023-07-24T12:06:56.942Z,26.71
2023-07-24T12:07:56.871Z,26.79
2023-07-24T12:08:56.925Z,26.83
2023-07-24T12:09:56.883Z,26.90
2023-07-24T12:10:56.862Z,26.94
2023-07-24T12:11:56.872Z,27.05
2023-07-24T12:12:56.875Z,27.15
2023-07-24T12:13:56.878Z,27.12
2023-07-24T12:14:56.852Z,27.23
2023-07-24T12:15:56.930Z,27.13
2023-07-24T12:16:56.855Z,27.13
2023-07-24T12:17:56.847Z,27.09
2023-07-24T12:18:56.829Z,27.11
2023-07-24T12:19:56.854Z,27.27
2023-07-24T12:20:56.848Z,27.21
2023-07-24T12:21:56.821Z,27.27
2023-07-24T12:22:56.836Z,27.16
2023-07-24T12:23:56.838Z,27.20
2023-07-24T12:24:56.918Z,27.16
2023-07-24T12:25:56.768Z,27.21
2023-07-24T12:26:56.775Z,27.39
2023-07-24T12:27:56.770Z,27.50
2023-07-24T12:28:57.785Z,27.58
2023-07-24T12:29:56.762Z,27.48
2023-07-24T12:30:56.747Z,27.52
2023-07-24T12:31:56.741Z,27.40
2023-07-24T12:32:56.832Z,27.20
2023-07-24T12:33:56.760Z,27.02
2023-07-24T12:34:56.727Z,26.98
2023-07-24T12:35:56.789Z,26.98
2023-07-24T12:36:56.782Z,26.93
2023-07-24T12:37:56.733Z,27.03
2023-07-24T12:38:56.740Z,27.16
2023-07-24T12:39:56.713Z,27.16
2023-07-24T12:40:56.687Z,27.16
2023-07-24T12:41:56.694Z,27.12
2023-07-24T12:42:56.741Z,26.96
2023-07-24T12:43:56.699Z,26.93
2023-07-24T12:44:58.947Z,26.93
2023-07-24T12:45:57.718Z,26.88
2023-07-24T12:46:56.746Z,26.78
2023-07-24T12:47:56.763Z,26.61
2023-07-24T12:48:56.683Z,26.42
2023-07-24T12:49:56.646Z,26.38
2023-07-24T12:50:56.668Z,26.60
2023-07-24T12:51:56.626Z,26.72
2023-07-24T12:52:56.642Z,27.11
2023-07-24T12:54:02.215Z,27.35
2023-07-24T12:55:01.797Z,27.49